createdAt,value
2019-02-25T00:00:08.699Z,50.40
2019-02-25T00:03:25.262Z,51.00
2019-02-25T00:06:41.876Z,51.40
2019-02-25T00:09:58.603Z,51.10
2019-02-25T00:20:32.050Z,50.80
2019-02-25T00:23:48.615Z,51.50
2019-02-25T00:27:05.891Z,52.20
2019-02-25T00:30:22.363Z,53.00
2019-02-25T00:33:37.611Z,53.60
2019-02-25T00:37:01.783Z,54.00
2019-02-25T00:40:18.444Z,54.20
2019-02-25T00:43:35.178Z,54.30
2019-02-25T00:46:52.510Z,54.50
2019-02-25T00:50:09.107Z,55.20
2019-02-25T00:53:26.511Z,54.70
2019-02-25T00:56:43.211Z,55.00
2019-02-25T00:59:59.752Z,55.20
2019-02-25T01:03:16.463Z,55.40
2019-02-25T01:06:33.806Z,55.60
2019-02-25T01:09:50.794Z,55.60
2019-02-25T01:13:07.323Z,55.80
2019-02-25T01:16:24.126Z,55.80
2019-02-25T01:19:39.406Z,56.00
2019-02-25T01:23:03.583Z,56.40
2019-02-25T01:26:20.312Z,56.80
2019-02-25T01:29:37.155Z,57.00
2019-02-25T01:32:52.470Z,57.20
2019-02-25T01:36:16.706Z,57.60
2019-02-25T01:39:33.641Z,57.80
2019-02-25T01:42:50.879Z,57.80
2019-02-25T01:46:07.961Z,57.60
2019-02-25T01:49:25.306Z,57.60
2019-02-25T01:52:41.945Z,57.50
2019-02-25T01:55:58.906Z,57.50
2019-02-25T02:02:35.725Z,57.10
2019-02-25T02:05:52.794Z,57.00
2019-02-25T02:09:09.839Z,57.10
2019-02-25T02:12:26.942Z,57.50
2019-02-25T02:15:43.894Z,57.80
2019-02-25T02:19:00.652Z,58.00
2019-02-25T02:22:17.502Z,57.90
2019-02-25T02:25:34.218Z,57.50
2019-02-25T02:28:51.111Z,57.30
2019-02-25T02:32:07.619Z,57.30
2019-02-25T02:35:24.455Z,57.00
2019-02-25T02:38:41.435Z,56.80
2019-02-25T02:41:58.684Z,56.70
2019-02-25T02:45:15.406Z,56.60
2019-02-25T02:48:31.955Z,56.60
2019-02-25T02:51:47.226Z,57.20
2019-02-25T02:55:11.479Z,56.50
2019-02-25T02:58:28.410Z,56.50
2019-02-25T03:01:45.291Z,56.50
2019-02-25T03:05:02.175Z,56.50
2019-02-25T03:08:19.004Z,56.40
2019-02-25T03:11:35.782Z,56.50
2019-02-25T03:14:52.734Z,56.60
2019-02-25T03:18:09.394Z,57.00
2019-02-25T03:21:26.335Z,57.30
2019-02-25T03:24:42.990Z,57.70
2019-02-25T03:28:00.028Z,58.00
2019-02-25T03:31:17.383Z,58.30
2019-02-25T03:34:34.336Z,58.50
2019-02-25T03:37:49.606Z,59.40
2019-02-25T03:41:13.750Z,59.30
2019-02-25T03:44:30.943Z,59.50
2019-02-25T03:47:48.087Z,59.30
2019-02-25T03:51:04.788Z,59.30
2019-02-25T03:54:21.643Z,59.40
2019-02-25T03:57:38.440Z,59.50
2019-02-25T04:00:55.844Z,59.50
2019-02-25T04:04:13.257Z,59.70
2019-02-25T04:07:29.760Z,60.00
2019-02-25T04:10:46.279Z,60.60
2019-02-25T04:14:02.927Z,61.10
2019-02-25T04:17:19.837Z,61.50
2019-02-25T04:20:36.242Z,61.70
2019-02-25T04:23:53.166Z,61.60
2019-02-25T04:27:09.973Z,61.90
2019-02-25T04:30:26.521Z,62.00
2019-02-25T04:33:43.201Z,62.00
2019-02-25T04:36:59.776Z,62.00
2019-02-25T04:40:16.650Z,62.00
2019-02-25T04:43:33.479Z,62.10
2019-02-25T04:46:50.459Z,62.20
2019-02-25T04:50:07.273Z,62.40
2019-02-25T04:53:23.822Z,62.50
2019-02-25T04:56:40.647Z,62.60
2019-02-25T04:59:57.363Z,62.70
2019-02-25T05:03:14.738Z,62.80
2019-02-25T05:06:31.468Z,62.90
2019-02-25T05:09:48.823Z,63.00
2019-02-25T05:13:06.067Z,63.50
2019-02-25T05:16:22.777Z,63.50
2019-02-25T05:19:39.403Z,63.50
2019-02-25T05:22:56.250Z,63.50
2019-02-25T05:26:13.223Z,63.50
2019-02-25T05:29:30.091Z,63.30
2019-02-25T05:32:46.909Z,63.40
2019-02-25T05:36:03.629Z,63.40
2019-02-25T05:39:20.383Z,63.20
2019-02-25T05:42:37.160Z,62.80
2019-02-25T05:45:42.968Z,62.50
2019-02-25T05:49:07.247Z,62.40
2019-02-25T05:52:12.280Z,62.20
2019-02-25T05:55:36.570Z,62.20
2019-02-25T05:58:52.012Z,62.00
2019-02-25T06:02:09.395Z,62.00
2019-02-25T06:05:26.267Z,61.90
2019-02-25T06:08:43.122Z,62.00
2019-02-25T06:12:00.611Z,62.10
2019-02-25T06:15:17.581Z,62.90
2019-02-25T06:18:34.697Z,63.40
2019-02-25T06:21:52.267Z,63.50
2019-02-25T06:25:09.825Z,63.70
2019-02-25T06:28:26.825Z,63.90
2019-02-25T06:31:44.080Z,64.10
2019-02-25T06:35:00.927Z,64.40
2019-02-25T06:38:17.571Z,64.60
2019-02-25T06:41:34.864Z,64.80
2019-02-25T06:44:52.106Z,64.90
2019-02-25T06:48:08.875Z,65.20
2019-02-25T06:51:25.602Z,65.50
2019-02-25T06:54:42.060Z,65.60
2019-02-25T06:57:58.824Z,65.90
2019-02-25T07:01:15.653Z,66.10
2019-02-25T07:04:51.501Z,66.20
2019-02-25T07:08:18.235Z,66.30
2019-02-25T07:11:46.448Z,66.30
2019-02-25T07:15:25.916Z,66.40
2019-02-25T07:19:02.015Z,66.20
2019-02-25T07:22:38.461Z,66.20
2019-02-25T07:26:02.927Z,66.30
2019-02-25T07:29:39.289Z,66.20
2019-02-25T07:33:15.422Z,65.70
2019-02-25T07:36:39.286Z,65.50
2019-02-25T07:40:18.228Z,65.20
2019-02-25T07:43:42.331Z,65.00
2019-02-25T07:47:18.463Z,65.20
2019-02-25T07:50:54.747Z,65.00
2019-02-25T07:54:19.799Z,65.00
2019-02-25T07:57:55.578Z,64.90
2019-02-25T08:01:32.575Z,65.00
2019-02-25T08:04:58.432Z,64.90
2019-02-25T08:08:28.901Z,64.80
2019-02-25T08:11:53.083Z,64.60
2019-02-25T08:15:29.231Z,64.40
2019-02-25T08:19:05.352Z,64.00
2019-02-25T08:22:41.659Z,63.00
2019-02-25T08:26:06.703Z,62.10
2019-02-25T08:29:42.953Z,61.40
2019-02-25T08:33:25.466Z,61.20
2019-02-25T08:37:02.576Z,61.10
2019-02-25T08:40:34.655Z,60.50
2019-02-25T08:44:24.295Z,60.30
2019-02-25T08:47:54.984Z,60.00
2019-02-25T08:51:11.672Z,59.70
2019-02-25T08:54:28.368Z,59.40
2019-02-25T08:57:44.946Z,59.10
2019-02-25T09:01:01.603Z,58.70
2019-02-25T09:04:18.923Z,58.20
2019-02-25T09:07:34.282Z,58.00
2019-02-25T09:10:58.436Z,57.40
2019-02-25T09:14:15.254Z,56.40
2019-02-25T09:17:32.275Z,55.60
2019-02-25T09:20:49.194Z,54.80
2019-02-25T09:24:07.690Z,53.70
2019-02-25T09:27:24.427Z,53.70
2019-02-25T09:30:41.207Z,53.50
2019-02-25T09:33:57.871Z,53.20
2019-02-25T09:37:14.895Z,52.50
2019-02-25T09:40:32.091Z,51.70
2019-02-25T09:43:48.641Z,51.50
2019-02-25T09:47:07.024Z,51.20
2019-02-25T09:50:24.030Z,50.70
2019-02-25T09:53:41.044Z,50.50
2019-02-25T09:56:57.890Z,49.60
2019-02-25T10:00:16.004Z,48.40
2019-02-25T10:03:33.142Z,48.20
2019-02-25T10:06:49.747Z,47.80
2019-02-25T10:10:06.783Z,47.30
2019-02-25T10:13:23.280Z,47.10
2019-02-25T10:16:39.879Z,46.50
2019-02-25T10:19:56.395Z,46.40
2019-02-25T10:23:13.220Z,45.90
2019-02-25T10:26:29.682Z,45.20
2019-02-25T10:29:46.511Z,44.40
2019-02-25T10:33:03.583Z,43.60
2019-02-25T10:36:20.317Z,43.70
2019-02-25T10:39:37.470Z,43.60
2019-02-25T10:42:54.286Z,42.90
2019-02-25T10:46:12.959Z,41.70
2019-02-25T10:49:31.316Z,41.10
2019-02-25T10:52:49.469Z,40.90
2019-02-25T10:56:07.050Z,40.10
2019-02-25T10:59:22.294Z,40.40
2019-02-25T11:02:47.365Z,40.50
2019-02-25T11:06:26.798Z,40.10
2019-02-25T11:10:08.799Z,38.60
2019-02-25T11:13:27.622Z,39.10
2019-02-25T11:16:46.021Z,39.50
2019-02-25T11:20:05.635Z,39.70
2019-02-25T11:23:22.899Z,39.40
2019-02-25T11:26:40.375Z,38.70
2019-02-25T11:29:57.743Z,38.60
2019-02-25T11:33:15.667Z,37.60
2019-02-25T11:36:32.391Z,37.50
2019-02-25T11:39:48.904Z,36.50
2019-02-25T11:43:08.238Z,36.20
2019-02-25T11:46:25.223Z,35.80
2019-02-25T11:49:42.094Z,35.40
2019-02-25T11:52:58.827Z,35.20
2019-02-25T11:56:15.699Z,35.00
2019-02-25T11:59:32.371Z,35.40
2019-02-25T12:02:49.140Z,34.80
2019-02-25T12:06:05.795Z,34.80
2019-02-25T12:09:22.786Z,34.90
2019-02-25T12:12:39.529Z,35.10
2019-02-25T12:15:56.695Z,34.90
2019-02-25T12:19:17.862Z,35.20
2019-02-25T12:22:32.171Z,35.30
2019-02-25T12:25:48.758Z,35.70
2019-02-25T12:29:10.916Z,35.90
2019-02-25T12:32:24.202Z,36.00
2019-02-25T12:35:41.170Z,36.20
2019-02-25T12:38:57.867Z,36.70
2019-02-25T12:42:15.167Z,37.00
2019-02-25T12:45:32.007Z,37.10
2019-02-25T12:48:48.628Z,37.00
2019-02-25T12:52:05.370Z,36.60
2019-02-25T12:55:22.274Z,36.80
2019-02-25T12:58:39.723Z,37.00
2019-02-25T13:01:56.666Z,37.60
2019-02-25T13:05:14.052Z,37.40
2019-02-25T13:08:31.114Z,37.50
2019-02-25T13:11:48.047Z,37.60
2019-02-25T13:15:13.105Z,38.10
2019-02-25T13:18:23.691Z,38.50
2019-02-25T13:21:40.494Z,38.80
2019-02-25T13:24:57.135Z,39.10
2019-02-25T13:28:13.954Z,39.60
2019-02-25T13:31:30.627Z,40.30
2019-02-25T13:34:47.456Z,41.30
2019-02-25T13:38:04.320Z,42.10
2019-02-25T13:41:19.991Z,43.40
2019-02-25T13:44:44.299Z,43.20
2019-02-25T13:48:01.483Z,43.60
2019-02-25T13:51:18.432Z,44.10
2019-02-25T13:54:36.415Z,44.40
2019-02-25T13:57:51.719Z,44.50
2019-02-25T14:01:16.211Z,44.60
2019-02-25T14:04:33.496Z,45.20
2019-02-25T14:07:50.327Z,44.80
2019-02-25T14:11:07.578Z,44.80
2019-02-25T14:14:24.711Z,44.40
2019-02-25T14:17:41.739Z,44.30
2019-02-25T14:20:59.795Z,44.20
2019-02-25T14:24:18.457Z,44.10
2019-02-25T14:27:35.411Z,44.30
2019-02-25T14:30:52.573Z,44.50
2019-02-25T14:34:09.904Z,44.90
2019-02-25T14:37:27.251Z,45.10
2019-02-25T14:40:46.595Z,45.40
2019-02-25T14:44:03.274Z,45.60
2019-02-25T14:47:22.909Z,45.80
2019-02-25T14:50:38.895Z,46.00
2019-02-25T14:53:56.283Z,46.60
2019-02-25T14:57:12.934Z,47.00
2019-02-25T15:00:32.793Z,47.20
2019-02-25T15:03:49.179Z,47.70
2019-02-25T15:07:08.152Z,48.00
2019-02-25T15:10:29.038Z,48.30
2019-02-25T15:13:43.039Z,48.60
2019-02-25T15:17:00.107Z,48.70
2019-02-25T15:20:18.598Z,48.90
2019-02-25T15:23:36.457Z,49.20
2019-02-25T15:26:57.258Z,50.40
2019-02-25T15:30:12.122Z,50.20
2019-02-25T15:33:29.983Z,50.70
2019-02-25T15:36:47.838Z,50.90
2019-02-25T15:40:04.875Z,51.10
2019-02-25T15:43:23.306Z,51.30
2019-02-25T15:46:40.370Z,51.20
2019-02-25T15:49:59.738Z,51.10
2019-02-25T15:53:16.617Z,51.10
2019-02-25T15:56:33.202Z,51.40
2019-02-25T15:59:50.504Z,51.50
2019-02-25T16:03:09.111Z,51.60
2019-02-25T16:06:28.811Z,52.20
2019-02-25T16:09:44.434Z,51.60
2019-02-25T16:13:02.285Z,51.70
2019-02-25T16:16:20.131Z,51.60
2019-02-25T16:19:45.498Z,51.40
2019-02-25T16:22:58.370Z,51.30
2019-02-25T16:26:16.071Z,51.20
2019-02-25T16:29:33.111Z,50.90
2019-02-25T16:32:50.359Z,50.70
2019-02-25T16:36:07.871Z,50.80
2019-02-25T16:39:25.734Z,51.00
2019-02-25T16:42:41.429Z,51.10
2019-02-25T16:46:06.427Z,51.30
2019-02-25T16:49:43.531Z,51.30
2019-02-25T16:53:03.724Z,51.20
2019-02-25T16:56:18.735Z,51.30
2019-02-25T16:59:35.706Z,51.60
2019-02-25T17:02:52.600Z,51.70
2019-02-25T17:06:11.458Z,51.90
2019-02-25T17:09:31.799Z,52.20
2019-02-25T17:12:49.990Z,52.50
2019-02-25T17:16:17.923Z,52.70
2019-02-25T17:19:26.480Z,52.90
2019-02-25T17:22:43.762Z,53.00
2019-02-25T17:26:02.008Z,53.20
2019-02-25T17:29:18.849Z,53.50
2019-02-25T17:32:37.832Z,53.80
2019-02-25T17:35:55.214Z,54.10
2019-02-25T17:39:12.997Z,54.50
2019-02-25T17:42:33.444Z,54.90
2019-02-25T17:45:49.431Z,55.10
2019-02-25T17:49:08.265Z,55.20
2019-02-25T17:52:25.847Z,55.50
2019-02-25T17:55:43.012Z,55.60
2019-02-25T17:59:01.032Z,55.80
2019-02-25T18:02:18.980Z,55.90
2019-02-25T18:05:38.047Z,56.20
2019-02-25T18:08:55.406Z,56.50
2019-02-25T18:12:13.383Z,56.70
2019-02-25T18:15:30.604Z,56.80
2019-02-25T18:18:50.761Z,56.90
2019-02-25T18:22:07.535Z,57.30
2019-02-25T18:25:24.875Z,57.60
2019-02-25T18:28:43.537Z,57.80
2019-02-25T18:32:01.745Z,58.00
2019-02-25T18:35:21.159Z,58.20
2019-02-25T18:38:36.365Z,58.30
2019-02-25T18:45:44.777Z,58.90
2019-02-25T18:49:02.985Z,59.10
2019-02-25T18:52:19.727Z,59.30
2019-02-25T18:55:36.930Z,59.50
2019-02-25T18:59:07.125Z,59.80
2019-02-25T19:02:14.491Z,61.00
2019-02-25T19:05:32.071Z,61.30
2019-02-25T19:08:49.411Z,61.60
2019-02-25T19:12:07.331Z,61.90
2019-02-25T19:15:24.681Z,62.10
2019-02-25T19:18:42.931Z,62.40
2019-02-25T19:22:00.419Z,62.50
2019-02-25T19:25:19.685Z,63.40
2019-02-25T19:28:35.963Z,63.00
2019-02-25T19:31:52.762Z,63.40
2019-02-25T19:35:10.223Z,64.00
2019-02-25T19:38:26.965Z,64.30
2019-02-25T19:41:46.940Z,64.40
2019-02-25T19:45:05.768Z,64.90
2019-02-25T19:48:22.629Z,65.00
2019-02-25T19:51:38.168Z,65.40
2019-02-25T19:54:55.108Z,65.50
2019-02-25T19:58:12.138Z,65.90
2019-02-25T20:01:29.043Z,66.40
2019-02-25T20:04:49.475Z,66.80
2019-02-25T20:08:05.395Z,67.10
2019-02-25T20:11:22.647Z,67.30
2019-02-25T20:14:40.196Z,67.60
2019-02-25T20:17:57.015Z,68.00
2019-02-25T20:21:12.448Z,68.30
2019-02-25T20:24:39.789Z,68.70
2019-02-25T20:28:04.353Z,69.00
2019-02-25T20:31:21.458Z,69.20
2019-02-25T20:34:38.393Z,69.50
2019-02-25T20:37:56.164Z,69.70
2019-02-25T20:41:16.056Z,70.00
2019-02-25T20:44:55.305Z,70.20
2019-02-25T20:48:20.294Z,70.70
2019-02-25T20:51:36.843Z,70.90
2019-02-25T20:54:53.446Z,71.10
2019-02-25T20:58:11.530Z,71.00
2019-02-25T21:01:28.571Z,71.10
2019-02-25T21:04:46.080Z,71.20
2019-02-25T21:08:03.594Z,72.10
2019-02-25T21:11:21.170Z,71.60
2019-02-25T21:14:40.298Z,71.90
2019-02-25T21:17:59.374Z,72.20
2019-02-25T21:21:16.235Z,72.50
2019-02-25T21:24:35.303Z,72.80
2019-02-25T21:27:50.562Z,73.10
2019-02-25T21:31:17.471Z,73.30
2019-02-25T21:34:55.366Z,73.50
2019-02-25T21:38:09.954Z,73.80
2019-02-25T21:41:35.024Z,74.20
2019-02-25T21:45:02.521Z,74.40
2019-02-25T21:48:21.182Z,74.50
2019-02-25T21:51:39.151Z,74.70
2019-02-25T21:54:55.875Z,74.70
2019-02-25T21:58:12.783Z,74.70
2019-02-25T22:01:29.974Z,74.80
2019-02-25T22:04:50.146Z,75.00
2019-02-25T22:08:06.938Z,75.20
2019-02-25T22:11:23.511Z,75.40
2019-02-25T22:14:41.189Z,75.60
2019-02-25T22:17:58.698Z,75.60
2019-02-25T22:21:17.236Z,75.90
2019-02-25T22:24:36.163Z,76.90
2019-02-25T22:27:52.991Z,76.40
2019-02-25T22:31:10.923Z,76.50
2019-02-25T22:34:27.994Z,76.60
2019-02-25T22:37:33.087Z,76.70
2019-02-25T22:40:59.422Z,76.90
2019-02-25T22:44:35.138Z,77.20
2019-02-25T22:47:52.030Z,77.40
2019-02-25T22:51:08.936Z,77.60
2019-02-25T22:54:25.853Z,77.70
2019-02-25T22:57:43.505Z,77.70
2019-02-25T23:01:03.108Z,77.70
2019-02-25T23:04:19.669Z,78.00
2019-02-25T23:07:45.715Z,78.20
2019-02-25T23:11:24.339Z,78.50
2019-02-25T23:14:42.496Z,78.70
2019-02-25T23:18:05.369Z,78.90
2019-02-25T23:21:23.729Z,78.70
2019-02-25T23:24:37.443Z,78.70
2019-02-25T23:27:55.733Z,78.70
2019-02-25T23:31:14.968Z,78.80
2019-02-25T23:34:31.799Z,78.60
2019-02-25T23:37:49.593Z,78.40
2019-02-25T23:41:07.654Z,78.60
2019-02-25T23:44:25.230Z,78.90
2019-02-25T23:47:41.973Z,79.20
2019-02-25T23:50:59.592Z,79.50
2019-02-25T23:54:18.485Z,79.60
2019-02-25T23:57:35.325Z,79.60
